Nijmegen, Netherlands
Current Conditions -  °F | °C
As of 8:25 AM on Thursday 23 Oct 2014 (Local Time) from EHVK Reporting Station
Haze Haze  
Wind Chill: 50°   Ceiling: 2700
Heat Index: 50°   Visibility: 6mi
Dew Point: 46°   Wind: 6mph
Humidity: 87%   Direction: 220°SW
Pressure: 30.18"   Gusts: NA
Location:  51.84°N, 5.85°E
Report Text: EHVK 230625Z AUTO 22005KT 9000 BR OVC027 10/08 Q1022 BLU 22006KT 9000 BKN026
Loading
Personal Weather Stations






























Interactive Weather Map
Tropical Storm Tracking
New forecast layout! Learn more

10-Day Weather Forecast

Advertisements
Track Severe Weather on mobile